createdAt,value
2022-09-03T00:00:14.750Z,101575.50
2022-09-03T00:02:47.840Z,101567.72
2022-09-03T00:05:30.030Z,101574.97
2022-09-03T00:08:36.754Z,101573.09
2022-09-03T00:11:20.418Z,101563.22
2022-09-03T00:14:04.762Z,101565.78
2022-09-03T00:16:44.158Z,101573.03
2022-09-03T00:19:12.019Z,101565.09
2022-09-03T00:21:55.162Z,101566.00
2022-09-03T00:24:23.818Z,101562.53
2022-09-03T00:26:54.708Z,101565.28
2022-09-03T00:29:27.660Z,101565.34
2022-09-03T00:32:02.401Z,101575.09
2022-09-03T00:34:59.183Z,101570.59
2022-09-03T00:37:27.155Z,101572.41
2022-09-03T00:39:55.032Z,101573.09
2022-09-03T00:42:40.939Z,101566.91
2022-09-03T00:45:24.464Z,101567.06
2022-09-03T00:48:20.001Z,101564.28
2022-09-03T00:51:06.955Z,101566.09
2022-09-03T00:53:56.955Z,101566.44
2022-09-03T00:56:42.550Z,101561.16
2022-09-03T00:59:30.574Z,101560.22
2022-09-03T01:02:11.998Z,101557.53
2022-09-03T01:04:44.665Z,101555.78
2022-09-03T01:07:14.648Z,101552.31
2022-09-03T01:09:48.288Z,101551.53
2022-09-03T01:12:36.406Z,101550.66
2022-09-03T01:15:16.218Z,101540.84
2022-09-03T01:18:11.175Z,101549.09
2022-09-03T01:20:49.524Z,101550.22
2022-09-03T01:23:27.684Z,101550.16
2022-09-03T01:26:26.773Z,101546.75
2022-09-03T01:29:16.390Z,101554.00
2022-09-03T01:31:59.021Z,101551.38
2022-09-03T01:34:40.652Z,101544.38
2022-09-03T01:37:22.598Z,101545.66
2022-09-03T01:40:02.263Z,101540.19
2022-09-03T01:42:42.180Z,101548.34
2022-09-03T01:45:24.111Z,101548.28
2022-09-03T01:47:54.124Z,101546.72
2022-09-03T01:50:27.300Z,101545.06
2022-09-03T01:53:32.454Z,101538.91
2022-09-03T01:56:17.542Z,101550.81
2022-09-03T01:58:55.127Z,101546.13
2022-09-03T02:01:34.958Z,101545.19
2022-09-03T02:04:02.232Z,101546.00
2022-09-03T02:06:31.959Z,101545.19
2022-09-03T02:08:58.799Z,101551.53
2022-09-03T02:11:25.708Z,101553.44
2022-09-03T02:13:55.268Z,101544.72
2022-09-03T02:16:24.645Z,101545.78
2022-09-03T02:18:53.550Z,101537.72
2022-09-03T02:21:23.542Z,101541.38
2022-09-03T02:23:50.460Z,101549.50
2022-09-03T02:26:21.753Z,101546.09
2022-09-03T02:28:49.118Z,101547.00
2022-09-03T02:31:16.137Z,101547.13
2022-09-03T02:33:45.787Z,101548.81
2022-09-03T02:36:15.529Z,101548.94
2022-09-03T02:38:43.386Z,101550.81
2022-09-03T02:41:13.364Z,101546.28
2022-09-03T02:43:46.367Z,101546.38
2022-09-03T02:46:18.771Z,101541.06
2022-09-03T02:48:45.553Z,101548.34
2022-09-03T02:51:13.691Z,101548.63
2022-09-03T02:53:42.536Z,101546.78
2022-09-03T02:56:09.399Z,101547.66
2022-09-03T02:58:36.098Z,101551.09
2022-09-03T03:01:03.586Z,101544.81
2022-09-03T03:03:30.622Z,101545.81
2022-09-03T03:05:59.377Z,101543.13
2022-09-03T03:08:29.103Z,101540.47
2022-09-03T03:10:58.967Z,101537.16
2022-09-03T03:13:27.003Z,101546.94
2022-09-03T03:16:03.607Z,101541.63
2022-09-03T03:18:30.466Z,101538.00
2022-09-03T03:20:57.159Z,101543.28
2022-09-03T03:23:24.140Z,101546.00
2022-09-03T03:25:50.876Z,101550.50
2022-09-03T03:28:20.045Z,101551.38
2022-09-03T03:30:48.789Z,101553.19
2022-09-03T03:33:18.654Z,101555.69
2022-09-03T03:35:45.398Z,101556.59
2022-09-03T03:38:12.136Z,101560.16
2022-09-03T03:40:39.471Z,101560.16
2022-09-03T03:43:06.206Z,101570.81
2022-09-03T03:45:33.519Z,101567.34
2022-09-03T03:48:00.313Z,101570.31
2022-09-03T03:50:28.199Z,101563.91
2022-09-03T03:52:54.960Z,101561.03
2022-09-03T03:55:21.629Z,101564.63
2022-09-03T03:57:48.452Z,101560.00
2022-09-03T04:00:15.793Z,101558.78
2022-09-03T04:02:42.521Z,101561.38
2022-09-03T04:05:09.629Z,101566.94
2022-09-03T04:07:36.525Z,101560.31
2022-09-03T04:10:03.517Z,101566.41
2022-09-03T04:12:30.507Z,101564.13
2022-09-03T04:14:57.246Z,101566.88
2022-09-03T04:17:25.446Z,101561.28
2022-09-03T04:19:52.341Z,101556.03
2022-09-03T04:22:20.826Z,101560.34
2022-09-03T04:24:47.575Z,101556.56
2022-09-03T04:27:14.411Z,101557.38
2022-09-03T04:29:41.379Z,101553.81
2022-09-03T04:32:26.708Z,101554.94
2022-09-03T04:34:53.622Z,101552.47
2022-09-03T04:37:20.522Z,101555.22
2022-09-03T04:39:47.273Z,101560.66
2022-09-03T04:42:14.129Z,101556.72
2022-09-03T04:44:41.355Z,101557.66
2022-09-03T04:47:08.181Z,101552.06
2022-09-03T04:49:34.945Z,101546.22
2022-09-03T04:52:03.494Z,101553.19
2022-09-03T04:54:30.459Z,101558.22
2022-09-03T04:56:57.399Z,101554.94
2022-09-03T04:59:24.179Z,101554.47
2022-09-03T05:01:52.871Z,101553.28
2022-09-03T05:04:20.424Z,101556.91
2022-09-03T05:06:47.253Z,101554.66
2022-09-03T05:09:14.284Z,101552.59
2022-09-03T05:11:41.073Z,101558.03
2022-09-03T05:14:11.892Z,101557.59
2022-09-03T05:16:39.049Z,101560.22
2022-09-03T05:19:08.635Z,101564.16
2022-09-03T05:21:38.660Z,101563.97
2022-09-03T05:24:05.933Z,101572.59
2022-09-03T05:26:37.267Z,101573.34
2022-09-03T05:29:08.451Z,101563.44
2022-09-03T05:31:38.192Z,101557.16
2022-09-03T05:34:06.599Z,101560.16
2022-09-03T05:36:35.743Z,101562.72
2022-09-03T05:39:02.467Z,101565.59
2022-09-03T05:41:30.157Z,101564.66
2022-09-03T05:43:59.341Z,101567.91
2022-09-03T05:46:32.648Z,101563.59
2022-09-03T05:49:05.107Z,101571.97
2022-09-03T05:51:32.625Z,101570.09
2022-09-03T05:53:59.641Z,101572.03
2022-09-03T05:56:28.101Z,101574.59
2022-09-03T05:58:58.047Z,101575.22
2022-09-03T06:01:29.076Z,101572.31
2022-09-03T06:04:08.844Z,101572.22
2022-09-03T06:06:38.014Z,101561.38
2022-09-03T06:09:07.194Z,101572.06
2022-09-03T06:11:35.654Z,101572.88
2022-09-03T06:14:08.286Z,101574.81
2022-09-03T06:16:37.116Z,101568.97
2022-09-03T06:19:07.954Z,101574.56
2022-09-03T06:21:36.761Z,101570.81
2022-09-03T06:24:03.738Z,101572.44
2022-09-03T06:26:30.491Z,101568.78
2022-09-03T06:28:57.976Z,101578.69
2022-09-03T06:31:25.285Z,101578.50
2022-09-03T06:33:53.282Z,101578.69
2022-09-03T06:36:20.945Z,101576.00
2022-09-03T06:38:55.581Z,101581.41
2022-09-03T06:41:31.909Z,101586.63
2022-09-03T06:44:03.694Z,101584.00
2022-09-03T06:46:33.290Z,101585.53
2022-09-03T06:49:00.566Z,101583.25
2022-09-03T06:51:29.483Z,101575.06
2022-09-03T06:54:04.422Z,101582.22
2022-09-03T06:56:37.370Z,101574.38
2022-09-03T06:59:08.383Z,101583.59
2022-09-03T07:01:36.146Z,101585.38
2022-09-03T07:04:05.275Z,101582.91
2022-09-03T07:06:34.289Z,101580.97
2022-09-03T07:09:01.044Z,101585.38
2022-09-03T07:11:30.908Z,101572.66
2022-09-03T07:13:58.785Z,101580.16
2022-09-03T07:16:30.993Z,101580.41
2022-09-03T07:18:58.061Z,101576.53
2022-09-03T07:21:29.958Z,101584.84
2022-09-03T07:23:57.391Z,101587.69
2022-09-03T07:26:26.586Z,101590.00
2022-09-03T07:28:56.851Z,101582.50
2022-09-03T07:31:32.424Z,101593.72
2022-09-03T07:34:00.726Z,101593.66
2022-09-03T07:36:29.207Z,101585.72
2022-09-03T07:39:02.148Z,101584.13
2022-09-03T07:41:29.503Z,101590.50
2022-09-03T07:43:57.324Z,101590.44
2022-09-03T07:46:27.094Z,101593.00
2022-09-03T07:48:55.610Z,101589.91
2022-09-03T07:51:28.583Z,101596.84
2022-09-03T07:54:00.362Z,101597.63
2022-09-03T07:56:27.292Z,101595.91
2022-09-03T07:58:56.889Z,101588.34
2022-09-03T08:01:24.956Z,101587.22
2022-09-03T08:03:53.601Z,101595.50
2022-09-03T08:06:22.195Z,101599.06
2022-09-03T08:08:49.200Z,101586.56
2022-09-03T08:11:18.501Z,101588.97
2022-09-03T08:13:48.519Z,101591.44
2022-09-03T08:16:18.849Z,101590.97
2022-09-03T08:18:47.625Z,101587.81
2022-09-03T08:21:17.086Z,101581.00
2022-09-03T08:23:48.319Z,101587.50
2022-09-03T08:26:18.702Z,101587.72
2022-09-03T08:28:45.628Z,101589.88
2022-09-03T08:31:18.123Z,101586.03
2022-09-03T08:33:47.301Z,101580.72
2022-09-03T08:36:22.966Z,101575.22
2022-09-03T08:38:55.025Z,101570.03
2022-09-03T08:41:47.092Z,101570.94
2022-09-03T08:44:38.309Z,101563.50
2022-09-03T08:47:18.542Z,101561.91
2022-09-03T08:49:46.408Z,101558.59
2022-09-03T08:52:32.693Z,101555.31
2022-09-03T08:55:22.091Z,101562.59
2022-09-03T08:57:51.605Z,101558.59
2022-09-03T09:00:19.304Z,101554.06
2022-09-03T09:02:53.825Z,101557.69
2022-09-03T09:05:26.161Z,101549.28
2022-09-03T09:08:04.863Z,101547.56
2022-09-03T09:10:38.874Z,101545.53
2022-09-03T09:13:16.490Z,101551.19
2022-09-03T09:16:07.588Z,101538.50
2022-09-03T09:18:46.440Z,101536.44
2022-09-03T09:21:27.500Z,101543.19
2022-09-03T09:23:59.757Z,101540.75
2022-09-03T09:26:26.473Z,101536.22
2022-09-03T09:29:04.869Z,101532.25
2022-09-03T09:31:35.791Z,101535.59
2022-09-03T09:34:07.440Z,101527.94
2022-09-03T09:36:43.431Z,101526.56
2022-09-03T09:39:11.432Z,101519.25
2022-09-03T09:41:38.373Z,101520.25
2022-09-03T09:44:05.819Z,101513.25
2022-09-03T09:46:38.887Z,101507.44
2022-09-03T09:49:22.792Z,101519.66
2022-09-03T09:51:49.854Z,101510.31
2022-09-03T09:54:28.136Z,101515.78
2022-09-03T09:57:04.238Z,101521.81
2022-09-03T09:59:34.233Z,101511.59
2022-09-03T10:02:24.138Z,101507.97
2022-09-03T10:04:51.210Z,101499.44
2022-09-03T10:07:31.491Z,101492.16
2022-09-03T10:10:07.463Z,101490.47
2022-09-03T10:12:51.702Z,101488.94
2022-09-03T10:15:24.758Z,101490.47
2022-09-03T10:18:04.041Z,101496.63
2022-09-03T10:20:37.456Z,101494.88
2022-09-03T10:23:25.838Z,101494.00
2022-09-03T10:26:07.569Z,101490.78
2022-09-03T10:28:41.656Z,101483.31
2022-09-03T10:31:19.416Z,101488.09
2022-09-03T10:34:23.894Z,101489.03
2022-09-03T10:37:02.837Z,101480.66
2022-09-03T10:39:50.193Z,101479.13
2022-09-03T10:42:47.138Z,101486.66
2022-09-03T10:45:18.753Z,101475.47
2022-09-03T10:48:01.994Z,101479.59
2022-09-03T10:50:48.876Z,101468.00
2022-09-03T10:53:43.328Z,101471.97
2022-09-03T10:56:29.092Z,101468.16
2022-09-03T10:59:51.741Z,101459.22
2022-09-03T11:02:55.031Z,101451.09
2022-09-03T11:05:37.231Z,101457.09
2022-09-03T11:08:14.286Z,101442.59
2022-09-03T11:10:45.326Z,101450.44
2022-09-03T11:13:22.190Z,101453.78
2022-09-03T11:15:52.570Z,101451.63
2022-09-03T11:18:27.236Z,101447.47
2022-09-03T11:21:02.085Z,101445.69
2022-09-03T11:23:32.476Z,101450.19
2022-09-03T11:26:05.222Z,101445.28
2022-09-03T11:28:49.268Z,101439.66
2022-09-03T11:31:34.049Z,101443.75
2022-09-03T11:34:34.108Z,101432.63
2022-09-03T11:37:21.817Z,101439.25
2022-09-03T11:39:56.491Z,101437.34
2022-09-03T11:42:37.148Z,101431.41
2022-09-03T11:45:13.902Z,101430.53
2022-09-03T11:47:44.441Z,101432.53
2022-09-03T11:50:21.208Z,101428.38
2022-09-03T11:52:53.500Z,101423.66
2022-09-03T11:55:46.139Z,101425.53
2022-09-03T11:58:20.795Z,101427.69
2022-09-03T12:00:48.402Z,101419.97
2022-09-03T12:03:18.136Z,101412.47
2022-09-03T12:05:53.949Z,101416.41
2022-09-03T12:08:34.787Z,101413.53
2022-09-03T12:11:20.473Z,101408.25
2022-09-03T12:14:11.630Z,101399.78
2022-09-03T12:16:49.916Z,101403.50
2022-09-03T12:19:38.476Z,101406.53
2022-09-03T12:22:05.592Z,101410.91
2022-09-03T12:24:37.861Z,101391.00
2022-09-03T12:27:05.300Z,101398.94
2022-09-03T12:29:32.171Z,101401.78
2022-09-03T12:32:11.973Z,101391.38
2022-09-03T12:34:38.841Z,101383.97
2022-09-03T12:37:18.826Z,101390.50
2022-09-03T12:40:08.813Z,101385.31
2022-09-03T12:42:35.906Z,101371.88
2022-09-03T12:45:07.943Z,101381.34
2022-09-03T12:47:40.037Z,101378.28
2022-09-03T12:50:20.098Z,101366.91
2022-09-03T12:52:49.439Z,101369.69
2022-09-03T12:55:41.794Z,101371.19
2022-09-03T12:58:13.992Z,101356.06
2022-09-03T13:01:04.145Z,101365.34
2022-09-03T13:03:38.145Z,101371.41
2022-09-03T13:06:10.245Z,101369.03
2022-09-03T13:08:46.372Z,101366.31
2022-09-03T13:11:16.494Z,101358.78
2022-09-03T13:13:54.180Z,101351.94
2022-09-03T13:16:21.154Z,101358.66
2022-09-03T13:19:02.351Z,101371.47
2022-09-03T13:21:56.050Z,101363.94
2022-09-03T13:24:40.712Z,101358.94
2022-09-03T13:27:25.876Z,101357.94
2022-09-03T13:30:14.531Z,101352.28
2022-09-03T13:32:50.519Z,101358.81
2022-09-03T13:35:36.388Z,101357.78
2022-09-03T13:38:27.812Z,101351.81
2022-09-03T13:41:15.161Z,101352.31
2022-09-03T13:43:44.258Z,101356.00
2022-09-03T13:46:17.337Z,101356.25
2022-09-03T13:49:04.036Z,101351.75
2022-09-03T13:51:51.919Z,101346.03
2022-09-03T13:54:47.577Z,101341.19
2022-09-03T13:57:31.579Z,101342.09
2022-09-03T14:00:10.802Z,101346.31
2022-09-03T14:03:16.692Z,101332.91
2022-09-03T14:05:55.534Z,101334.53
2022-09-03T14:08:55.425Z,101328.34
2022-09-03T14:11:40.662Z,101337.38
2022-09-03T14:14:29.288Z,101337.88
2022-09-03T14:17:22.857Z,101339.88
2022-09-03T14:19:59.638Z,101334.91
2022-09-03T14:22:43.821Z,101327.63
2022-09-03T14:25:30.968Z,101322.78
2022-09-03T14:28:15.031Z,101327.84
2022-09-03T14:30:54.837Z,101317.09
2022-09-03T14:33:48.533Z,101322.53
2022-09-03T14:36:47.596Z,101317.09
2022-09-03T14:39:32.665Z,101314.59
2022-09-03T14:42:02.502Z,101323.50
2022-09-03T14:44:52.140Z,101323.28
2022-09-03T14:47:44.110Z,101312.25
2022-09-03T14:50:46.488Z,101319.56
2022-09-03T14:53:42.445Z,101318.44
2022-09-03T14:56:18.205Z,101317.56
2022-09-03T14:59:00.389Z,101313.25
2022-09-03T15:01:39.018Z,101302.00
2022-09-03T15:04:21.500Z,101306.56
2022-09-03T15:06:48.258Z,101301.63
2022-09-03T15:09:42.230Z,101308.78
2022-09-03T15:12:19.064Z,101306.66
2022-09-03T15:14:59.479Z,101322.13
2022-09-03T15:17:26.260Z,101302.97
2022-09-03T15:20:18.277Z,101308.56
2022-09-03T15:23:13.631Z,101313.28
2022-09-03T15:25:59.088Z,101304.16
2022-09-03T15:29:00.037Z,101304.84
2022-09-03T15:31:39.260Z,101308.31
2022-09-03T15:34:09.113Z,101311.19
2022-09-03T15:36:40.164Z,101323.09
2022-09-03T15:39:13.551Z,101312.31
2022-09-03T15:41:59.665Z,101316.63
2022-09-03T15:44:28.427Z,101302.59
2022-09-03T15:47:00.901Z,101319.56
2022-09-03T15:49:34.767Z,101322.81
2022-09-03T15:52:54.266Z,101314.81
2022-09-03T15:55:37.324Z,101314.72
2022-09-03T15:58:29.982Z,101322.66
2022-09-03T16:01:01.219Z,101316.97
2022-09-03T16:04:09.798Z,101317.47
2022-09-03T16:07:14.157Z,101318.75
2022-09-03T16:10:23.307Z,101320.56
2022-09-03T16:12:56.539Z,101316.91
2022-09-03T16:15:26.939Z,101311.94
2022-09-03T16:18:25.713Z,101313.78
2022-09-03T16:21:07.479Z,101314.41
2022-09-03T16:23:46.898Z,101319.09
2022-09-03T16:26:20.197Z,101327.41
2022-09-03T16:28:58.822Z,101318.63
2022-09-03T16:31:25.798Z,101329.63
2022-09-03T16:34:18.869Z,101327.25
2022-09-03T16:37:13.224Z,101328.66
2022-09-03T16:39:55.677Z,101323.44
2022-09-03T16:43:05.133Z,101332.38
2022-09-03T16:45:53.048Z,101328.38
2022-09-03T16:48:26.335Z,101321.72
2022-09-03T16:51:10.367Z,101320.56
2022-09-03T16:54:06.173Z,101327.03
2022-09-03T16:56:51.530Z,101319.56
2022-09-03T16:59:51.357Z,101322.19
2022-09-03T17:02:52.464Z,101321.97
2022-09-03T17:06:05.106Z,101327.94
2022-09-03T17:08:49.553Z,101322.19
2022-09-03T17:11:26.885Z,101321.69
2022-09-03T17:13:57.342Z,101322.41
2022-09-03T17:16:36.529Z,101334.72
2022-09-03T17:19:19.579Z,101330.09
2022-09-03T17:22:24.197Z,101329.25
2022-09-03T17:25:00.467Z,101336.13
2022-09-03T17:27:39.654Z,101343.63
2022-09-03T17:30:10.675Z,101329.50
2022-09-03T17:33:01.617Z,101336.22
2022-09-03T17:35:38.194Z,101326.91
2022-09-03T17:38:11.145Z,101334.97
2022-09-03T17:40:47.877Z,101332.66
2022-09-03T17:43:40.845Z,101333.53
2022-09-03T17:46:40.256Z,101339.69
2022-09-03T17:49:08.053Z,101346.31
2022-09-03T17:51:38.173Z,101339.28
2022-09-03T17:54:40.134Z,101345.25
2022-09-03T17:57:20.278Z,101355.66
2022-09-03T17:59:58.208Z,101354.56
2022-09-03T18:02:47.825Z,101356.50
2022-09-03T18:05:40.690Z,101352.03
2022-09-03T18:08:34.296Z,101356.50
2022-09-03T18:11:19.434Z,101361.78
2022-09-03T18:14:01.406Z,101367.13
2022-09-03T18:16:30.551Z,101361.94
2022-09-03T18:19:19.484Z,101366.88
2022-09-03T18:22:06.309Z,101370.69
2022-09-03T18:25:03.820Z,101364.59
2022-09-03T18:27:56.204Z,101370.44
2022-09-03T18:30:41.938Z,101371.63
2022-09-03T18:33:27.374Z,101374.25
2022-09-03T18:36:13.679Z,101381.81
2022-09-03T18:38:59.687Z,101379.09
2022-09-03T18:41:51.481Z,101378.44
2022-09-03T18:45:12.414Z,101384.94
2022-09-03T18:48:18.107Z,101390.56
2022-09-03T18:51:32.672Z,101384.72
2022-09-03T18:55:03.841Z,101379.75
2022-09-03T18:57:50.805Z,101394.19
2022-09-03T19:00:36.207Z,101391.88
2022-09-03T19:03:29.151Z,101391.88
2022-09-03T19:06:37.693Z,101392.94
2022-09-03T19:09:32.765Z,101394.09
2022-09-03T19:12:59.484Z,101385.44
2022-09-03T19:15:52.346Z,101384.50
2022-09-03T19:19:05.924Z,101387.28
2022-09-03T19:21:59.705Z,101393.59
2022-09-03T19:24:48.710Z,101388.81
2022-09-03T19:27:58.689Z,101395.06
2022-09-03T19:31:22.451Z,101391.78
2022-09-03T19:34:39.057Z,101395.66
2022-09-03T19:37:34.538Z,101398.72
2022-09-03T19:40:23.068Z,101403.66
2022-09-03T19:43:37.264Z,101396.00
2022-09-03T19:46:51.115Z,101403.22
2022-09-03T19:49:45.044Z,101403.00
2022-09-03T19:52:30.425Z,101411.81
2022-09-03T19:55:16.748Z,101406.28
2022-09-03T19:58:16.547Z,101407.34
2022-09-03T20:01:11.179Z,101406.47
2022-09-03T20:03:56.522Z,101408.78
2022-09-03T20:06:41.812Z,101417.88
2022-09-03T20:09:28.772Z,101421.44
2022-09-03T20:11:57.423Z,101420.00
2022-09-03T20:14:24.327Z,101420.59
2022-09-03T20:16:57.176Z,101421.94
2022-09-03T20:19:25.654Z,101426.69
2022-09-03T20:22:01.627Z,101427.47
2022-09-03T20:24:56.274Z,101426.56
2022-09-03T20:27:51.459Z,101430.81
2022-09-03T20:30:23.267Z,101429.66
2022-09-03T20:33:15.100Z,101428.81
2022-09-03T20:35:51.757Z,101431.91
2022-09-03T20:38:31.007Z,101432.19
2022-09-03T20:41:00.812Z,101436.16
2022-09-03T20:43:51.835Z,101436.47
2022-09-03T20:46:36.890Z,101434.72
2022-09-03T20:49:16.924Z,101430.34
2022-09-03T20:52:06.587Z,101435.06
2022-09-03T20:54:38.587Z,101433.63
2022-09-03T20:57:15.825Z,101436.91
2022-09-03T21:00:01.039Z,101442.72
2022-09-03T21:02:55.477Z,101447.13
2022-09-03T21:05:36.892Z,101448.78
2022-09-03T21:08:14.473Z,101447.34
2022-09-03T21:11:06.564Z,101442.41
2022-09-03T21:13:44.066Z,101452.28
2022-09-03T21:16:22.920Z,101444.72
2022-09-03T21:19:09.441Z,101440.94
2022-09-03T21:21:48.847Z,101447.22
2022-09-03T21:24:20.917Z,101446.06
2022-09-03T21:26:57.238Z,101448.47
2022-09-03T21:29:31.000Z,101448.00
2022-09-03T21:32:10.938Z,101449.06
2022-09-03T21:34:41.855Z,101447.03
2022-09-03T21:37:13.044Z,101446.53
2022-09-03T21:39:58.012Z,101460.06
2022-09-03T21:42:38.733Z,101463.75
2022-09-03T21:45:11.619Z,101469.13
2022-09-03T21:47:42.222Z,101471.31
2022-09-03T21:50:19.381Z,101466.41
2022-09-03T21:53:04.148Z,101468.91
2022-09-03T21:55:53.890Z,101471.16
2022-09-03T21:58:23.657Z,101469.13
2022-09-03T22:00:55.981Z,101466.50
2022-09-03T22:03:23.277Z,101470.28
2022-09-03T22:06:25.915Z,101477.25
2022-09-03T22:09:16.934Z,101476.88
2022-09-03T22:11:51.809Z,101473.56
2022-09-03T22:14:21.433Z,101478.41
2022-09-03T22:17:10.894Z,101479.03
2022-09-03T22:19:39.129Z,101475.63
2022-09-03T22:22:16.510Z,101479.88
2022-09-03T22:24:50.175Z,101481.47
2022-09-03T22:27:37.776Z,101484.94
2022-09-03T22:30:14.052Z,101485.88
2022-09-03T22:33:11.755Z,101489.75
2022-09-03T22:36:08.967Z,101490.28
2022-09-03T22:38:45.123Z,101497.09
2022-09-03T22:41:16.979Z,101498.16
2022-09-03T22:43:57.725Z,101493.97
2022-09-03T22:46:27.992Z,101495.53
2022-09-03T22:49:07.171Z,101492.13
2022-09-03T22:51:40.251Z,101498.69
2022-09-03T22:54:28.914Z,101501.66
2022-09-03T22:56:56.439Z,101501.38
2022-09-03T22:59:39.503Z,101499.97
2022-09-03T23:02:11.619Z,101506.69
2022-09-03T23:04:57.027Z,101504.06
2022-09-03T23:07:48.912Z,101506.16
2022-09-03T23:10:25.613Z,101511.81
2022-09-03T23:13:13.347Z,101517.00
2022-09-03T23:15:41.722Z,101515.34
2022-09-03T23:18:15.520Z,101514.50
2022-09-03T23:20:47.526Z,101512.06
2022-09-03T23:23:21.633Z,101523.38
2022-09-03T23:25:53.974Z,101514.69
2022-09-03T23:28:20.959Z,101522.66
2022-09-03T23:30:48.144Z,101515.53
2022-09-03T23:33:14.914Z,101520.88
2022-09-03T23:36:53.106Z,101516.41
2022-09-03T23:39:43.430Z,101523.66
2022-09-03T23:42:42.251Z,101520.47
2022-09-03T23:45:10.269Z,101524.31
2022-09-03T23:47:47.749Z,101517.78
2022-09-03T23:50:25.667Z,101520.03
2022-09-03T23:53:41.358Z,101525.75
2022-09-03T23:56:14.482Z,101523.50
2022-09-03T23:58:57.452Z,101523.81
